Time;durP1;ratioP1;P1;durP2;ratioP2;P2;SDS_P1;SDS_P2;PMS_P1;PMS_P2;Temp;Humidity;BMP_temperature;BMP_pressure;BME280_temperature;BME280_humidity;BME280_pressure;Samples;Min_cycle;Max_cycle;Signal;HPM_P1;HPM_P2
2021/12/16 00:04:07;;;;;;;15.38;7.20;;;8.50;99.90;;;;;;4997978;28;20042;-72
2021/12/16 00:08:59;;;;;;;18.97;8.50;;;8.50;99.90;;;;;;4998281;28;20054;-71
2021/12/16 00:33:18;;;;;;;20.65;10.48;;;8.40;99.90;;;;;;4997787;28;20054;-71
2021/12/16 00:35:48;;;;;;;19.50;10.05;;;8.40;99.90;;;;;;4997525;28;20056;-71
2021/12/16 00:38:14;;;;;;;19.65;10.32;;;8.40;99.90;;;;;;4997403;28;20560;-71
2021/12/16 00:40:42;;;;;;;18.88;10.43;;;8.40;99.90;;;;;;4997395;28;20045;-71
2021/12/16 00:43:15;;;;;;;20.27;10.32;;;8.40;99.90;;;;;;4997330;28;20046;-71
2021/12/16 00:45:56;;;;;;;18.05;10.55;;;8.40;99.90;;;;;;4997301;28;20130;-71
2021/12/16 00:48:25;;;;;;;20.42;11.32;;;8.40;99.90;;;;;;4997278;28;20038;-71
2021/12/16 00:56:07;;;;;;;21.50;11.68;;;8.40;99.90;;;;;;4997226;28;20132;-71
2021/12/16 00:58:42;;;;;;;24.85;12.85;;;8.30;99.90;;;;;;4996974;28;20069;-71
2021/12/16 01:01:30;;;;;;;22.42;13.05;;;8.30;99.90;;;;;;4997060;28;20114;-71
2021/12/16 01:34:19;;;;;;;27.38;15.77;;;8.10;99.90;;;;;;4996556;28;20050;-72
2021/12/16 01:37:16;;;;;;;24.92;15.55;;;8.10;99.90;;;;;;4996307;28;20048;-72
2021/12/16 01:42:47;;;;;;;29.98;15.30;;;8.10;99.90;;;;;;4996230;28;20049;-72
2021/12/16 01:50:59;;;;;;;24.02;15.18;;;8.00;99.90;;;;;;4995514;28;20097;-72
2021/12/16 01:56:13;;;;;;;28.15;17.08;;;7.90;99.90;;;;;;4995968;28;20123;-72
2021/12/16 01:58:39;;;;;;;32.47;18.17;;;7.90;99.90;;;;;;4995999;28;20038;-72
2021/12/16 02:01:30;;;;;;;28.38;17.00;;;7.80;99.90;;;;;;4995909;28;20038;-72
2021/12/16 02:04:09;;;;;;;27.30;16.27;;;7.80;99.90;;;;;;4995882;28;20041;-72
2021/12/16 02:07:03;;;;;;;31.17;17.13;;;7.70;99.90;;;;;;4995897;28;20045;-72
2021/12/16 02:12:00;;;;;;;29.42;18.05;;;7.70;99.90;;;;;;4996053;28;20068;-72
2021/12/16 02:28:32;;;;;;;35.20;20.08;;;7.60;99.90;;;;;;4995921;28;20049;-72
2021/12/16 02:31:19;;;;;;;32.67;19.55;;;7.60;99.90;;;;;;4995370;28;20046;-72
2021/12/16 02:38:48;;;;;;;35.70;20.38;;;7.60;99.90;;;;;;4995585;28;20498;-72
2021/12/16 02:41:14;;;;;;;42.13;21.10;;;7.60;99.90;;;;;;4995612;28;20042;-72
2021/12/16 02:49:01;;;;;;;36.33;21.13;;;7.60;99.90;;;;;;4995468;28;20129;-72
2021/12/16 02:51:28;;;;;;;33.20;20.42;;;7.60;99.90;;;;;;4997197;28;20168;-72
2021/12/16 02:54:00;;;;;;;35.35;20.33;;;7.60;99.90;;;;;;4999276;28;20414;-72
2021/12/16 02:56:27;;;;;;;34.80;20.35;;;7.70;99.90;;;;;;4999569;28;20064;-72
2021/12/16 02:58:55;;;;;;;32.67;20.42;;;7.70;99.90;;;;;;4999118;28;20034;-72
2021/12/16 03:01:28;;;;;;;41.22;21.30;;;7.70;99.90;;;;;;4999146;28;20168;-72
2021/12/16 03:03:56;;;;;;;36.80;20.33;;;7.70;99.90;;;;;;4999154;28;20038;-72
2021/12/16 03:06:22;;;;;;;38.15;21.25;;;7.70;99.90;;;;;;4999111;28;20497;-72
2021/12/16 03:08:49;;;;;;;35.58;20.42;;;7.70;99.90;;;;;;4999098;28;20049;-72
2021/12/16 03:14:29;;;;;;;40.03;22.05;;;7.70;99.90;;;;;;4998740;28;20053;-72
2021/12/16 03:17:05;;;;;;;39.17;21.88;;;7.60;99.90;;;;;;4998876;28;20116;-72
2021/12/16 03:19:59;;;;;;;35.63;20.88;;;7.60;99.90;;;;;;4998920;28;20150;-72
2021/12/16 03:28:35;;;;;;;38.35;21.10;;;7.60;99.90;;;;;;4998080;28;20481;-72
2021/12/16 03:31:37;;;;;;;41.10;21.88;;;7.60;99.90;;;;;;4998977;28;20092;-72
2021/12/16 03:36:26;;;;;;;40.28;21.73;;;7.70;99.90;;;;;;4998785;28;20042;-71
2021/12/16 03:38:56;;;;;;;36.15;22.15;;;7.70;99.90;;;;;;4998506;28;20042;-71
2021/12/16 03:41:24;;;;;;;35.42;21.52;;;7.70;99.90;;;;;;4982316;28;20498;-72
2021/12/16 03:43:51;;;;;;;40.63;22.33;;;7.70;99.90;;;;;;4998706;28;20037;-72
2021/12/16 03:46:28;;;;;;;37.20;20.50;;;7.70;99.90;;;;;;4998357;28;20084;-72
2021/12/16 03:49:06;;;;;;;40.53;22.23;;;7.70;99.90;;;;;;4998316;28;20049;-72
2021/12/16 03:51:37;;;;;;;34.35;19.85;;;7.80;99.90;;;;;;4998347;28;20088;-72
2021/12/16 03:54:17;;;;;;;40.42;22.30;;;7.70;99.90;;;;;;4998535;28;20046;-72
2021/12/16 03:56:44;;;;;;;32.92;20.05;;;7.70;99.90;;;;;;4998251;28;20053;-72
2021/12/16 03:59:12;;;;;;;35.25;18.95;;;7.60;99.90;;;;;;4998141;28;20038;-72
2021/12/16 04:01:38;;;;;;;33.63;21.10;;;7.60;99.90;;;;;;4998325;28;20149;-72
2021/12/16 04:04:04;;;;;;;38.78;21.85;;;7.60;99.90;;;;;;4996955;28;20495;-72
2021/12/16 04:06:35;;;;;;;38.28;21.48;;;7.60;99.90;;;;;;4998019;28;20122;-72
2021/12/16 04:09:04;;;;;;;40.88;21.08;;;7.60;99.90;;;;;;5014732;28;20116;-72
2021/12/16 04:11:38;;;;;;;35.80;22.60;;;7.50;99.90;;;;;;4998421;28;20085;-72
2021/12/16 04:14:06;;;;;;;40.38;21.60;;;7.50;99.90;;;;;;4997977;28;20041;-72
2021/12/16 04:16:45;;;;;;;46.70;23.17;;;7.50;99.90;;;;;;4998161;28;20037;-71
2021/12/16 04:19:14;;;;;;;35.70;20.33;;;7.40;99.90;;;;;;4997856;28;20050;-72
2021/12/16 04:21:46;;;;;;;39.50;22.65;;;7.40;99.90;;;;;;4997772;28;20038;-72
2021/12/16 04:24:12;;;;;;;37.22;21.58;;;7.40;99.90;;;;;;4997971;28;20041;-72
2021/12/16 04:26:40;;;;;;;35.97;20.73;;;7.40;99.90;;;;;;4997655;28;20068;-72
2021/12/16 04:29:06;;;;;;;40.58;21.60;;;7.40;99.90;;;;;;4997610;28;20049;-72
2021/12/16 04:31:35;;;;;;;37.78;21.40;;;7.50;99.90;;;;;;4997871;28;20053;-72
2021/12/16 04:34:01;;;;;;;38.75;20.13;;;7.50;99.90;;;;;;4997504;28;20081;-72
2021/12/16 04:36:27;;;;;;;45.38;23.83;;;7.50;99.90;;;;;;4997716;28;20394;-72
2021/12/16 04:38:53;;;;;;;45.03;24.60;;;7.50;99.90;;;;;;4997476;28;20545;-72
2021/12/16 04:41:20;;;;;;;36.17;19.85;;;7.50;99.90;;;;;;4997309;28;20046;-72
2021/12/16 04:43:50;;;;;;;40.95;21.63;;;7.50;99.90;;;;;;4997539;28;20111;-72
2021/12/16 04:46:19;;;;;;;43.25;23.58;;;7.50;99.90;;;;;;4997214;28;20042;-72
2021/12/16 04:48:50;;;;;;;38.08;21.30;;;7.50;99.90;;;;;;4997180;28;20516;-72
2021/12/16 04:51:17;;;;;;;36.63;20.27;;;7.50;99.90;;;;;;4997523;28;20042;-72
2021/12/16 04:53:44;;;;;;;51.90;25.00;;;7.40;99.90;;;;;;4997134;28;20045;-72
2021/12/16 04:56:11;;;;;;;38.58;21.52;;;7.40;99.90;;;;;;4997020;28;20529;-72
2021/12/16 04:58:37;;;;;;;49.85;24.42;;;7.40;99.90;;;;;;4997022;28;20120;-72
2021/12/16 05:01:04;;;;;;;42.95;23.23;;;7.40;99.90;;;;;;4997031;28;20042;-72
2021/12/16 05:03:31;;;;;;;41.70;24.15;;;7.30;99.90;;;;;;4996990;28;20100;-72
2021/12/16 05:05:57;;;;;;;41.67;23.25;;;7.30;99.90;;;;;;4997041;28;20521;-72
2021/12/16 05:08:23;;;;;;;46.45;23.42;;;7.30;99.90;;;;;;4997121;28;20042;-71
2021/12/16 05:10:51;;;;;;;36.33;22.88;;;7.20;99.90;;;;;;4996792;28;20410;-72
2021/12/16 05:13:20;;;;;;;43.65;23.67;;;7.30;99.90;;;;;;4996620;28;20475;-72
2021/12/16 05:15:47;;;;;;;39.78;22.92;;;7.30;99.90;;;;;;4996690;28;20044;-72
2021/12/16 05:18:19;;;;;;;45.30;23.45;;;7.20;99.90;;;;;;4996652;28;20052;-72
2021/12/16 05:20:46;;;;;;;40.20;22.70;;;7.20;99.90;;;;;;4996784;28;20044;-72
2021/12/16 05:26:29;;;;;;;44.30;24.02;;;7.20;99.90;;;;;;4996782;28;20085;-72
2021/12/16 05:28:55;;;;;;;54.50;24.17;;;7.20;99.90;;;;;;4996565;28;20132;-72
2021/12/16 05:31:23;;;;;;;43.40;23.98;;;7.20;99.90;;;;;;4996734;28;20088;-72
2021/12/16 05:33:50;;;;;;;38.45;22.08;;;7.20;99.90;;;;;;4996718;28;20042;-72
2021/12/16 05:36:16;;;;;;;41.15;22.20;;;7.20;99.90;;;;;;4996237;28;20053;-72
2021/12/16 05:38:42;;;;;;;34.85;20.77;;;7.20;99.90;;;;;;4996187;28;20046;-72
2021/12/16 05:41:11;;;;;;;36.63;21.02;;;7.20;99.90;;;;;;4996296;28;20121;-72
2021/12/16 05:43:38;;;;;;;27.30;17.75;;;7.30;99.90;;;;;;4996200;28;20034;-72
2021/12/16 05:46:05;;;;;;;29.58;18.75;;;7.30;99.90;;;;;;4996158;28;20049;-72
2021/12/16 05:48:33;;;;;;;40.00;20.55;;;7.30;99.90;;;;;;4996152;28;20053;-72
2021/12/16 05:51:03;;;;;;;31.58;18.67;;;7.30;99.90;;;;;;4996295;28;20437;-72
2021/12/16 05:53:30;;;;;;;35.17;19.40;;;7.40;99.90;;;;;;4996428;28;20045;-72
2021/12/16 05:55:56;;;;;;;35.03;20.65;;;7.40;99.90;;;;;;4995938;28;20080;-72
2021/12/16 05:58:23;;;;;;;34.20;19.52;;;7.50;99.90;;;;;;4995924;28;20042;-72
2021/12/16 06:00:54;;;;;;;31.83;19.48;;;7.50;99.90;;;;;;4996026;28;20068;-72
2021/12/16 06:03:21;;;;;;;32.30;19.40;;;7.50;99.90;;;;;;4996286;28;20042;-72
2021/12/16 06:05:47;;;;;;;43.17;20.95;;;7.50;99.90;;;;;;4995832;28;20534;-72
2021/12/16 06:08:12;;;;;;;31.10;18.38;;;7.50;99.90;;;;;;4996141;28;20133;-72
2021/12/16 06:13:05;;;;;;;34.47;20.15;;;7.50;99.90;;;;;;4996114;28;20138;-72
2021/12/16 06:26:29;;;;;;;39.38;21.90;;;7.50;99.90;;;;;;4995968;28;20041;-71
2021/12/16 06:26:29;;;;;;;39.20;22.77;;;7.50;99.90;;;;;;4998922;28;20052;-71
2021/12/16 06:28:55;;;;;;;33.92;21.45;;;7.60;99.90;;;;;;5002244;28;20052;-71
2021/12/16 06:31:21;;;;;;;41.00;23.25;;;7.60;99.90;;;;;;5002477;28;20034;-71
2021/12/16 06:33:47;;;;;;;37.28;20.35;;;7.60;99.90;;;;;;5002467;28;20061;-71
2021/12/16 06:36:12;;;;;;;34.35;22.73;;;7.60;99.90;;;;;;5002112;28;20413;-71
2021/12/16 06:38:38;;;;;;;31.25;19.30;;;7.70;99.90;;;;;;5002048;28;20042;-71
2021/12/16 06:41:03;;;;;;;36.83;21.27;;;7.70;99.90;;;;;;5002124;28;20033;-71
2021/12/16 06:43:31;;;;;;;33.08;22.13;;;7.70;99.90;;;;;;5002047;28;20092;-71
2021/12/16 06:45:58;;;;;;;45.42;23.02;;;7.70;99.90;;;;;;5001969;28;20487;-71
2021/12/16 06:48:29;;;;;;;45.88;23.95;;;7.70;99.90;;;;;;5002277;28;20041;-71
2021/12/16 06:50:59;;;;;;;45.70;24.65;;;7.70;99.90;;;;;;5002040;28;20045;-71
2021/12/16 06:53:35;;;;;;;42.25;24.38;;;7.70;99.90;;;;;;5002008;28;20045;-71
2021/12/16 06:56:20;;;;;;;38.10;23.63;;;7.60;99.90;;;;;;5002176;28;20041;-71
2021/12/16 06:58:50;;;;;;;45.70;24.58;;;7.60;99.90;;;;;;5001880;28;20405;-71
2021/12/16 07:04:01;;;;;;;40.45;24.08;;;7.60;99.90;;;;;;5001827;28;20473;-71
2021/12/16 07:06:33;;;;;;;47.50;25.95;;;7.60;99.90;;;;;;5002300;28;20037;-71
2021/12/16 07:09:13;;;;;;;43.92;24.35;;;7.60;99.90;;;;;;4985643;28;20043;-71
2021/12/16 07:11:42;;;;;;;43.42;24.17;;;7.60;99.90;;;;;;5001851;28;20038;-71
2021/12/16 07:14:15;;;;;;;37.42;22.90;;;7.50;99.90;;;;;;5001589;28;20050;-71
2021/12/16 07:16:42;;;;;;;;;;;7.50;99.90;;;;;;5002622;28;20092;-71
2021/12/16 07:19:09;;;;;;;43.33;24.55;;;7.50;99.90;;;;;;5001740;28;19921;-71
2021/12/16 07:21:37;;;;;;;45.95;25.13;;;7.50;99.90;;;;;;5001765;28;20037;-71
2021/12/16 07:24:05;;;;;;;39.50;24.63;;;7.50;99.90;;;;;;5001708;28;20080;-72
2021/12/16 07:26:31;;;;;;;42.38;24.63;;;7.50;99.90;;;;;;5001749;28;20490;-72
2021/12/16 07:28:57;;;;;;;35.30;21.30;;;7.50;99.90;;;;;;5001707;28;20038;-71
2021/12/16 07:31:22;;;;;;;41.97;23.55;;;7.50;99.90;;;;;;5001654;28;20084;-71
2021/12/16 07:33:48;;;;;;;45.50;24.67;;;7.50;99.90;;;;;;5001795;28;20045;-71
2021/12/16 07:36:18;;;;;;;37.42;23.10;;;7.50;99.90;;;;;;5001639;28;20046;-71
2021/12/16 07:38:45;;;;;;;40.42;24.45;;;7.50;99.90;;;;;;4998633;28;20046;-71
2021/12/16 07:41:12;;;;;;;38.13;24.83;;;7.40;99.90;;;;;;4998783;28;20465;-71
2021/12/16 07:43:57;;;;;;;51.30;27.05;;;7.40;99.90;;;;;;4998433;28;20490;-71
2021/12/16 07:46:22;;;;;;;43.65;23.80;;;7.40;99.90;;;;;;4998695;28;20105;-71
2021/12/16 07:48:48;;;;;;;37.67;23.42;;;7.30;99.90;;;;;;4998388;28;20576;-72
2021/12/16 07:51:14;;;;;;;35.28;23.15;;;7.30;99.90;;;;;;4998245;28;20042;-72
2021/12/16 07:53:40;;;;;;;44.65;24.67;;;7.30;99.90;;;;;;4998295;28;20050;-72
2021/12/16 07:56:07;;;;;;;42.35;25.35;;;7.30;99.90;;;;;;4998442;28;20099;-72
2021/12/16 07:58:33;;;;;;;47.22;25.02;;;7.30;99.90;;;;;;4998403;28;20060;-72
2021/12/16 08:01:00;;;;;;;47.42;25.17;;;7.30;99.90;;;;;;4998168;28;20069;-72
2021/12/16 08:03:33;;;;;;;59.80;28.88;;;7.30;99.90;;;;;;4998066;28;20037;-72
2021/12/16 08:05:59;;;;;;;63.22;28.63;;;7.30;99.90;;;;;;4998119;28;20498;-72
2021/12/16 08:08:25;;;;;;;52.38;28.13;;;7.30;99.90;;;;;;4998085;28;20041;-72
2021/12/16 08:10:53;;;;;;;64.45;30.65;;;7.30;99.90;;;;;;4998276;28;20130;-72
2021/12/16 08:13:19;;;;;;;56.05;28.17;;;7.30;99.90;;;;;;4997955;28;20092;-72
2021/12/16 08:15:45;;;;;;;74.20;32.47;;;7.40;99.90;;;;;;4997638;28;20041;-72
2021/12/16 08:18:11;;;;;;;60.50;29.13;;;7.40;99.90;;;;;;4997661;28;20046;-71
2021/12/16 08:20:38;;;;;;;77.35;31.95;;;7.40;99.90;;;;;;4997794;28;20121;-71
2021/12/16 08:23:04;;;;;;;54.85;29.50;;;7.50;99.90;;;;;;4997756;28;20049;-72
2021/12/16 08:25:31;;;;;;;64.55;31.38;;;7.50;99.90;;;;;;4997679;28;20042;-72
2021/12/16 08:27:59;;;;;;;78.78;33.92;;;7.50;99.90;;;;;;4997754;28;20053;-72
2021/12/16 08:30:30;;;;;;;97.28;36.72;;;7.60;99.90;;;;;;4997569;28;20042;-70
2021/12/16 08:32:57;;;;;;;47.63;27.92;;;7.60;99.90;;;;;;4997634;28;20050;-71
2021/12/16 08:35:23;;;;;;;115.88;38.58;;;7.60;99.90;;;;;;4997664;28;20041;-71
2021/12/16 08:37:48;;;;;;;77.43;31.83;;;7.70;99.90;;;;;;4997395;28;20502;-71
2021/12/16 08:40:18;;;;;;;103.10;34.10;;;7.70;99.90;;;;;;4997659;28;20092;-71
2021/12/16 08:42:45;;;;;;;179.13;36.58;;;7.70;99.90;;;;;;4997885;28;20127;-71
2021/12/16 08:45:13;;;;;;;111.10;31.08;;;7.70;99.90;;;;;;4997517;28;20104;-71
2021/12/16 08:47:40;;;;;;;68.30;26.27;;;7.70;99.90;;;;;;4997134;28;20410;-71
2021/12/16 08:50:09;;;;;;;154.05;37.05;;;7.70;99.90;;;;;;4996740;28;20129;-72
2021/12/16 08:52:35;;;;;;;89.22;30.13;;;7.70;99.90;;;;;;4997471;28;20041;-72
2021/12/16 08:55:00;;;;;;;93.65;30.60;;;7.80;99.90;;;;;;4997316;28;20391;-72
2021/12/16 08:57:28;;;;;;;170.98;29.92;;;7.80;99.90;;;;;;4996991;28;20077;-72
2021/12/16 08:59:54;;;;;;;181.70;29.95;;;7.80;99.90;;;;;;4980883;28;20038;-72
2021/12/16 09:02:20;;;;;;;157.10;29.92;;;7.80;99.90;;;;;;4996951;28;20104;-72
2021/12/16 09:04:46;;;;;;;193.60;35.38;;;7.80;99.90;;;;;;4996883;28;20038;-72
2021/12/16 09:07:12;;;;;;;124.18;29.95;;;7.80;99.90;;;;;;4996908;28;20100;-72
2021/12/16 09:09:39;;;;;;;151.90;31.25;;;7.80;99.90;;;;;;4996926;28;20037;-72
2021/12/16 09:12:25;;;;;;;166.77;30.55;;;7.90;99.90;;;;;;4996795;28;20049;-72
2021/12/16 09:14:51;;;;;;;105.38;26.35;;;7.90;99.90;;;;;;4996588;28;20506;-72
2021/12/16 09:17:17;;;;;;;144.82;33.33;;;7.90;99.90;;;;;;4996704;28;20041;-72
2021/12/16 09:19:47;;;;;;;169.98;34.70;;;7.90;99.90;;;;;;4996890;28;20073;-71
2021/12/16 09:22:16;;;;;;;93.50;28.88;;;7.90;99.90;;;;;;4981619;28;20484;-71
2021/12/16 09:24:41;;;;;;;147.93;35.00;;;8.00;99.90;;;;;;4996707;28;20042;-71
2021/12/16 09:27:07;;;;;;;126.82;29.25;;;8.00;99.90;;;;;;4996790;28;20613;-71
2021/12/16 09:29:33;;;;;;;117.93;30.77;;;8.00;99.90;;;;;;4996564;28;20087;-71
2021/12/16 09:32:03;;;;;;;78.25;26.90;;;8.00;99.90;;;;;;4980144;28;20041;-72
2021/12/16 09:34:30;;;;;;;121.88;33.13;;;8.00;99.90;;;;;;4996331;28;20049;-72
2021/12/16 09:36:55;;;;;;;118.22;29.27;;;7.90;99.90;;;;;;4996570;28;20180;-72
2021/12/16 09:39:21;;;;;;;41.75;21.40;;;7.90;99.90;;;;;;4996273;28;20538;-72
2021/12/16 09:41:49;;;;;;;116.57;32.58;;;8.00;99.90;;;;;;4996529;28;20060;-72
2021/12/16 09:44:16;;;;;;;119.18;33.65;;;8.00;99.90;;;;;;4996680;28;20145;-72
2021/12/16 09:46:47;;;;;;;85.65;27.23;;;8.00;99.90;;;;;;4996424;28;20549;-72
2021/12/16 09:49:14;;;;;;;60.90;24.02;;;8.10;99.90;;;;;;4996649;28;20109;-72
2021/12/16 09:51:43;;;;;;;51.85;23.17;;;8.10;99.90;;;;;;4996500;28;20077;-71
2021/12/16 09:54:14;;;;;;;90.03;29.73;;;8.10;99.90;;;;;;4996210;28;20049;-72
2021/12/16 09:56:41;;;;;;;59.25;25.05;;;8.10;99.90;;;;;;4996064;28;20041;-72
2021/12/16 09:59:12;;;;;;;37.25;22.27;;;8.10;99.90;;;;;;5012238;28;20061;-72
2021/12/16 10:01:39;;;;;;;45.78;24.83;;;8.10;99.90;;;;;;4995230;28;20057;-72
2021/12/16 10:04:08;;;;;;;59.92;25.60;;;8.10;99.90;;;;;;4995861;28;20433;-71
2021/12/16 10:06:37;;;;;;;59.92;27.00;;;8.10;99.90;;;;;;4996058;28;20049;-71
2021/12/16 10:09:06;;;;;;;67.53;25.80;;;8.20;99.90;;;;;;4996168;28;20046;-71
2021/12/16 10:11:34;;;;;;;52.15;23.27;;;8.20;99.90;;;;;;4996139;28;20564;-71
2021/12/16 10:14:18;;;;;;;54.13;26.02;;;8.20;99.90;;;;;;4995577;28;20074;-71
2021/12/16 10:19:34;;;;;;;45.17;23.73;;;8.20;99.90;;;;;;4995757;28;20054;-71
2021/12/16 10:22:17;;;;;;;68.38;25.88;;;8.20;99.90;;;;;;4995990;28;20038;-71
2021/12/16 10:24:43;;;;;;;39.45;19.33;;;8.20;99.90;;;;;;4995646;28;20077;-71
2021/12/16 10:27:22;;;;;;;53.75;25.17;;;8.20;99.90;;;;;;4996035;28;20038;-72
2021/12/16 10:30:05;;;;;;;63.83;27.10;;;8.30;99.90;;;;;;4995693;28;20087;-72
2021/12/16 10:32:41;;;;;;;56.63;22.92;;;8.30;99.90;;;;;;4995673;28;20414;-72
2021/12/16 10:35:14;;;;;;;61.28;23.55;;;8.30;99.90;;;;;;4995597;28;20104;-72
2021/12/16 10:37:45;;;;;;;41.55;22.23;;;8.30;99.90;;;;;;4995757;28;20115;-72
2021/12/16 10:40:26;;;;;;;42.38;22.25;;;8.30;99.90;;;;;;4995711;28;20058;-72
2021/12/16 10:42:52;;;;;;;49.30;21.48;;;8.40;99.90;;;;;;4995583;28;20124;-72
2021/12/16 10:45:31;;;;;;;57.75;22.73;;;8.40;99.90;;;;;;4995437;28;20549;-72
2021/12/16 10:48:33;;;;;;;41.70;20.58;;;8.50;99.90;;;;;;4995623;28;20491;-72
2021/12/16 10:51:10;;;;;;;32.00;18.25;;;8.50;99.90;;;;;;4945827;28;20127;-72
2021/12/16 10:54:27;;;;;;;59.42;22.92;;;8.50;99.90;;;;;;4995493;28;20045;-72
2021/12/16 10:57:04;;;;;;;72.85;21.90;;;8.60;99.90;;;;;;4899109;29;20405;-72
2021/12/16 10:59:36;;;;;;;105.25;23.50;;;8.60;99.90;;;;;;4983185;28;20189;-72
2021/12/16 11:02:19;;;;;;;107.03;24.55;;;8.60;99.90;;;;;;4979191;28;20128;-72
2021/12/16 11:05:05;;;;;;;107.72;23.73;;;8.70;99.90;;;;;;4995577;28;20406;-72
2021/12/16 11:07:32;;;;;;;86.15;22.05;;;8.70;99.90;;;;;;4995625;28;20478;-71
2021/12/16 11:10:18;;;;;;;76.82;21.77;;;8.70;99.90;;;;;;4995616;28;20091;-72
2021/12/16 11:12:49;;;;;;;86.55;22.42;;;8.70;99.90;;;;;;4997694;28;20076;-72
2021/12/16 11:15:21;;;;;;;94.40;21.92;;;8.70;99.90;;;;;;4998840;28;20041;-71
2021/12/16 11:17:49;;;;;;;95.43;21.75;;;8.80;99.90;;;;;;4998867;28;20046;-72
2021/12/16 11:20:24;;;;;;;119.40;23.95;;;8.80;99.90;;;;;;4998948;28;20450;-72
2021/12/16 11:22:58;;;;;;;102.53;24.10;;;8.80;99.90;;;;;;4998908;28;20112;-72
2021/12/16 11:25:28;;;;;;;116.07;24.88;;;8.80;99.90;;;;;;4998828;28;20076;-72
2021/12/16 11:28:07;;;;;;;165.60;33.20;;;8.80;99.90;;;;;;4999042;28;20099;-72
2021/12/16 11:30:43;;;;;;;71.25;22.20;;;8.80;99.90;;;;;;4998991;28;20042;-72
2021/12/16 11:33:11;;;;;;;117.22;26.77;;;8.80;99.90;;;;;;4998722;28;20034;-72
2021/12/16 11:35:50;;;;;;;116.00;24.58;;;8.80;99.90;;;;;;4998509;28;20045;-71
2021/12/16 11:38:30;;;;;;;119.05;24.70;;;8.80;99.90;;;;;;4998698;28;20097;-72
2021/12/16 11:41:26;;;;;;;108.43;23.90;;;8.70;99.90;;;;;;4998560;28;20038;-72
2021/12/16 11:44:06;;;;;;;99.82;23.27;;;8.70;99.90;;;;;;4997159;28;20053;-72
2021/12/16 11:46:46;;;;;;;154.27;28.77;;;8.70;99.90;;;;;;4998710;28;20057;-72
2021/12/16 11:49:15;;;;;;;102.85;24.50;;;8.70;99.90;;;;;;4998667;28;20045;-72
2021/12/16 11:51:48;;;;;;;144.15;27.70;;;8.70;99.90;;;;;;4998336;28;20038;-72
2021/12/16 11:54:22;;;;;;;128.98;29.23;;;8.70;99.90;;;;;;4998518;28;20536;-72
2021/12/16 11:57:00;;;;;;;133.77;29.77;;;8.70;99.90;;;;;;4998517;28;20033;-71
2021/12/16 11:59:28;;;;;;;204.55;35.83;;;8.70;99.90;;;;;;4998207;28;20414;-72
2021/12/16 12:01:55;;;;;;;87.55;23.60;;;8.70;99.90;;;;;;4998125;28;20520;-72
2021/12/16 12:04:29;;;;;;;94.45;25.10;;;8.70;99.90;;;;;;4998106;28;20087;-72
2021/12/16 12:06:55;;;;;;;111.43;28.83;;;8.70;99.90;;;;;;4982123;28;20069;-72
2021/12/16 12:09:33;;;;;;;123.50;25.73;;;8.70;99.90;;;;;;4998093;28;20089;-72
2021/12/16 12:11:59;;;;;;;142.98;29.00;;;8.70;99.90;;;;;;4998059;28;20113;-72
2021/12/16 12:14:31;;;;;;;115.22;26.67;;;8.70;99.90;;;;;;4998026;28;20121;-72
2021/12/16 12:17:08;;;;;;;100.95;24.08;;;8.80;99.90;;;;;;4997911;28;20052;-72
2021/12/16 12:19:41;;;;;;;147.13;25.95;;;8.80;99.90;;;;;;4997831;28;20465;-72
2021/12/16 12:22:06;;;;;;;105.80;25.45;;;8.80;99.90;;;;;;4998164;28;20191;-72
2021/12/16 12:24:37;;;;;;;84.43;23.83;;;8.80;99.90;;;;;;4997102;28;20502;-72
2021/12/16 12:27:19;;;;;;;72.53;23.15;;;8.80;99.90;;;;;;4997706;28;20038;-72
2021/12/16 12:29:52;;;;;;;78.80;24.63;;;8.90;99.90;;;;;;4997662;28;20045;-72
2021/12/16 12:32:25;;;;;;;60.08;23.80;;;8.80;99.90;;;;;;4997663;28;20038;-72
2021/12/16 12:35:13;;;;;;;120.70;26.52;;;8.90;99.90;;;;;;4997788;28;20550;-72
2021/12/16 12:37:45;;;;;;;69.95;20.48;;;8.90;99.90;;;;;;4997444;28;20530;-72
2021/12/16 12:40:21;;;;;;;161.90;31.35;;;8.90;99.90;;;;;;4997468;28;20045;-72
2021/12/16 12:42:50;;;;;;;129.63;25.48;;;8.90;99.90;;;;;;4981192;28;20046;-72
2021/12/16 12:45:19;;;;;;;150.82;28.27;;;8.90;99.90;;;;;;4997287;28;20037;-72
2021/12/16 12:47:49;;;;;;;112.13;25.27;;;8.80;99.90;;;;;;4997252;28;20053;-72
2021/12/16 12:50:23;;;;;;;168.85;30.20;;;8.80;99.90;;;;;;4997192;28;20046;-72
2021/12/16 12:52:52;;;;;;;159.68;29.13;;;8.80;99.90;;;;;;4997601;28;20068;-72
2021/12/16 12:55:23;;;;;;;150.73;26.98;;;8.80;99.90;;;;;;4997011;28;20556;-72
2021/12/16 12:57:49;;;;;;;223.95;34.08;;;8.80;99.90;;;;;;4997074;28;20096;-72
2021/12/16 13:00:31;;;;;;;145.20;25.92;;;8.80;99.90;;;;;;4997336;28;20037;-72
2021/12/16 13:03:00;;;;;;;211.23;29.52;;;8.80;99.90;;;;;;5014776;28;20038;-72
2021/12/16 13:05:26;;;;;;;118.00;28.40;;;8.80;99.90;;;;;;4997141;28;20084;-72
2021/12/16 13:08:00;;;;;;;150.13;27.73;;;8.80;99.90;;;;;;4997614;28;20045;-72
2021/12/16 13:10:33;;;;;;;190.45;30.83;;;8.90;99.90;;;;;;4997729;28;20041;-72
2021/12/16 13:15:56;;;;;;;208.60;33.00;;;8.80;99.90;;;;;;4996814;28;20050;-72
2021/12/16 13:24:39;;;;;;;60.58;20.92;;;8.80;99.90;;;;;;4996734;28;20041;-71
2021/12/16 13:27:20;;;;;;;51.72;19.42;;;8.90;99.90;;;;;;4996620;28;20033;-71
2021/12/16 13:30:39;;;;;;;80.95;21.63;;;8.90;99.90;;;;;;4996532;28;20042;-71
2021/12/16 13:32:47;;;;;;;54.70;18.58;;;8.90;99.90;;;;;;4995940;28;20565;-71
2021/12/16 13:37:55;;;;;;;122.70;25.30;;;9.00;99.90;;;;;;4996357;28;20111;-71
2021/12/16 13:40:28;;;;;;;74.70;22.73;;;9.00;99.90;;;;;;4996376;28;20069;-71
2021/12/16 13:43:10;;;;;;;96.88;23.42;;;9.00;99.90;;;;;;4996592;28;20053;-71
2021/12/16 13:45:49;;;;;;;89.63;24.33;;;9.00;99.90;;;;;;4996455;28;20095;-71
2021/12/16 13:48:46;;;;;;;122.22;25.48;;;8.90;99.90;;;;;;4996223;28;20042;-71
2021/12/16 14:09:26;;;;;;;54.47;20.15;;;8.90;99.90;;;;;;4996146;28;20038;-71
2021/12/16 14:12:49;;;;;;;53.53;20.27;;;8.90;99.90;;;;;;4995932;28;20048;-71
2021/12/16 14:17:49;;;;;;;40.33;17.85;;;8.90;99.90;;;;;;4995707;28;20565;-71
2021/12/16 14:24:14;;;;;;;53.83;19.85;;;8.90;99.90;;;;;;4995725;28;20042;-71
2021/12/16 14:37:29;;;;;;;53.05;19.38;;;8.90;99.90;;;;;;4995655;28;20132;-71
2021/12/16 14:40:13;;;;;;;53.78;20.77;;;8.90;99.90;;;;;;4995627;28;20041;-71
2021/12/16 14:48:36;;;;;;;108.13;25.75;;;8.90;99.90;;;;;;4998283;28;20088;-71
2021/12/16 14:50:55;;;;;;;95.15;25.92;;;8.80;99.90;;;;;;4999749;28;20054;-72
2021/12/16 14:53:31;;;;;;;60.83;21.70;;;8.90;99.90;;;;;;4999426;28;20049;-72
2021/12/16 14:56:27;;;;;;;63.15;22.23;;;8.90;99.90;;;;;;4999413;28;20049;-71
2021/12/16 14:59:00;;;;;;;90.78;23.58;;;8.90;99.90;;;;;;4991723;28;20198;-71
2021/12/16 15:01:38;;;;;;;97.70;25.02;;;8.90;99.90;;;;;;4999572;28;20046;-71
2021/12/16 15:04:05;;;;;;;100.38;24.63;;;8.90;99.90;;;;;;4999266;28;20045;-71
2021/12/16 15:06:40;;;;;;;73.05;24.88;;;8.80;99.90;;;;;;4999255;28;20550;-71
2021/12/16 15:09:18;;;;;;;35.03;17.60;;;8.80;99.90;;;;;;4999830;28;20045;-71
2021/12/16 15:17:11;;;;;;;72.18;19.27;;;8.80;99.90;;;;;;4999275;28;20050;-71
2021/12/16 15:37:13;;;;;;;67.25;20.30;;;8.70;99.90;;;;;;4998640;28;20105;-71
2021/12/16 15:40:08;;;;;;;57.15;17.95;;;8.70;99.90;;;;;;4998946;28;20050;-71
2021/12/16 15:45:17;;;;;;;70.03;19.50;;;8.70;99.90;;;;;;4998477;28;20136;-71
2021/12/16 15:47:46;;;;;;;43.42;17.52;;;8.70;99.90;;;;;;4998549;28;20084;-71
2021/12/16 15:50:16;;;;;;;103.90;22.25;;;8.70;99.90;;;;;;4998614;28;20050;-71
2021/12/16 15:52:45;;;;;;;128.48;24.30;;;8.70;99.90;;;;;;4998397;28;20057;-71
2021/12/16 15:55:25;;;;;;;76.55;21.98;;;8.70;99.90;;;;;;4998475;28;20163;-71
2021/12/16 15:57:50;;;;;;;48.92;20.52;;;8.70;99.90;;;;;;4998012;28;20075;-71
2021/12/16 16:00:21;;;;;;;67.57;22.10;;;8.70;99.90;;;;;;5015020;28;20038;-71
2021/12/16 16:02:47;;;;;;;40.83;17.58;;;8.70;99.90;;;;;;4998258;28;20077;-71
2021/12/16 16:05:14;;;;;;;50.97;18.45;;;8.70;99.90;;;;;;4981950;28;20069;-71
2021/12/16 16:07:41;;;;;;;38.70;17.55;;;8.80;99.90;;;;;;4998035;28;20529;-71
2021/12/16 16:10:10;;;;;;;26.55;14.95;;;8.70;99.90;;;;;;4998083;28;20046;-71
2021/12/16 16:12:36;;;;;;;47.75;18.05;;;8.70;99.90;;;;;;4997904;28;20414;-71
2021/12/16 16:15:16;;;;;;;48.90;18.13;;;8.70;99.90;;;;;;4997868;28;20050;-71
2021/12/16 16:18:13;;;;;;;40.40;15.93;;;8.70;99.90;;;;;;4998057;28;20434;-70
2021/12/16 16:20:45;;;;;;;42.42;17.05;;;8.70;99.90;;;;;;4997849;28;20038;-71
2021/12/16 16:23:15;;;;;;;71.18;19.83;;;8.70;99.90;;;;;;4997982;28;20049;-71
2021/12/16 16:25:41;;;;;;;44.70;18.15;;;8.70;99.90;;;;;;4997677;28;20045;-70
2021/12/16 16:28:08;;;;;;;48.65;17.17;;;8.70;99.90;;;;;;4997721;28;20048;-70